sensor_id;sensor_type;location;lat;lon;timestamp;P1;durP1;ratioP1;P2;durP2;ratioP2
27632;SDS011;15046;50.930;13.334;2023-03-23T00:02:24;1.08;;;0.60;;
27632;SDS011;15046;50.930;13.334;2023-03-23T00:07:20;2.13;;;0.93;;
27632;SDS011;15046;50.930;13.334;2023-03-23T00:09:48;2.25;;;0.90;;
27632;SDS011;15046;50.930;13.334;2023-03-23T00:12:22;1.50;;;0.70;;
27632;SDS011;15046;50.930;13.334;2023-03-23T00:14:54;1.63;;;0.90;;
27632;SDS011;15046;50.930;13.334;2023-03-23T00:17:20;2.50;;;0.90;;
27632;SDS011;15046;50.930;13.334;2023-03-23T00:19:48;1.83;;;0.70;;
27632;SDS011;15046;50.930;13.334;2023-03-23T00:22:15;3.38;;;0.80;;
27632;SDS011;15046;50.930;13.334;2023-03-23T00:24:42;1.25;;;0.70;;
27632;SDS011;15046;50.930;13.334;2023-03-23T00:27:09;1.48;;;0.70;;
27632;SDS011;15046;50.930;13.334;2023-03-23T00:29:37;2.17;;;0.70;;
27632;SDS011;15046;50.930;13.334;2023-03-23T00:32:05;1.67;;;0.85;;
27632;SDS011;15046;50.930;13.334;2023-03-23T00:34:31;3.28;;;0.70;;
27632;SDS011;15046;50.930;13.334;2023-03-23T00:36:59;2.03;;;0.73;;
27632;SDS011;15046;50.930;13.334;2023-03-23T00:39:26;2.63;;;0.65;;
27632;SDS011;15046;50.930;13.334;2023-03-23T00:41:53;1.65;;;0.60;;
27632;SDS011;15046;50.930;13.334;2023-03-23T00:44:25;2.13;;;0.90;;
27632;SDS011;15046;50.930;13.334;2023-03-23T00:46:56;1.38;;;0.57;;
27632;SDS011;15046;50.930;13.334;2023-03-23T00:49:23;2.20;;;0.77;;
27632;SDS011;15046;50.930;13.334;2023-03-23T00:51:50;1.33;;;0.65;;
27632;SDS011;15046;50.930;13.334;2023-03-23T00:54:21;1.90;;;0.60;;
27632;SDS011;15046;50.930;13.334;2023-03-23T00:56:48;1.60;;;0.63;;
27632;SDS011;15046;50.930;13.334;2023-03-23T00:59:14;0.95;;;0.55;;
27632;SDS011;15046;50.930;13.334;2023-03-23T01:01:40;2.55;;;0.82;;
27632;SDS011;15046;50.930;13.334;2023-03-23T01:04:06;1.58;;;0.80;;
27632;SDS011;15046;50.930;13.334;2023-03-23T01:06:36;1.48;;;0.63;;
27632;SDS011;15046;50.930;13.334;2023-03-23T01:09:08;2.92;;;0.70;;
27632;SDS011;15046;50.930;13.334;2023-03-23T01:11:35;1.88;;;0.60;;
27632;SDS011;15046;50.930;13.334;2023-03-23T01:14:02;3.92;;;0.82;;
27632;SDS011;15046;50.930;13.334;2023-03-23T01:16:28;1.38;;;0.80;;
27632;SDS011;15046;50.930;13.334;2023-03-23T01:18:54;1.35;;;0.80;;
27632;SDS011;15046;50.930;13.334;2023-03-23T01:21:20;2.25;;;0.75;;
27632;SDS011;15046;50.930;13.334;2023-03-23T01:23:46;2.53;;;0.90;;
27632;SDS011;15046;50.930;13.334;2023-03-23T01:26:14;2.40;;;0.70;;
27632;SDS011;15046;50.930;13.334;2023-03-23T01:28:42;1.80;;;0.70;;
27632;SDS011;15046;50.930;13.334;2023-03-23T01:31:09;1.48;;;0.57;;
27632;SDS011;15046;50.930;13.334;2023-03-23T01:33:37;1.38;;;0.50;;
27632;SDS011;15046;50.930;13.334;2023-03-23T01:36:05;1.25;;;0.73;;
27632;SDS011;15046;50.930;13.334;2023-03-23T01:38:33;2.58;;;0.70;;
27632;SDS011;15046;50.930;13.334;2023-03-23T01:40:59;1.77;;;0.70;;
27632;SDS011;15046;50.930;13.334;2023-03-23T01:43:26;1.38;;;0.65;;
27632;SDS011;15046;50.930;13.334;2023-03-23T01:45:52;2.95;;;0.95;;
27632;SDS011;15046;50.930;13.334;2023-03-23T01:50:51;1.80;;;0.65;;
27632;SDS011;15046;50.930;13.334;2023-03-23T01:53:45;6.85;;;0.90;;
27632;SDS011;15046;50.930;13.334;2023-03-23T01:56:14;1.30;;;0.70;;
27632;SDS011;15046;50.930;13.334;2023-03-23T01:58:44;1.60;;;0.60;;
27632;SDS011;15046;50.930;13.334;2023-03-23T02:01:11;1.35;;;0.70;;
27632;SDS011;15046;50.930;13.334;2023-03-23T02:03:41;2.70;;;0.70;;
27632;SDS011;15046;50.930;13.334;2023-03-23T02:06:10;2.53;;;0.80;;
27632;SDS011;15046;50.930;13.334;2023-03-23T02:08:36;2.42;;;0.73;;
27632;SDS011;15046;50.930;13.334;2023-03-23T02:11:13;2.03;;;0.80;;
27632;SDS011;15046;50.930;13.334;2023-03-23T02:13:40;2.08;;;0.77;;
27632;SDS011;15046;50.930;13.334;2023-03-23T02:16:14;1.60;;;0.77;;
27632;SDS011;15046;50.930;13.334;2023-03-23T02:27:02;1.90;;;0.90;;
27632;SDS011;15046;50.930;13.334;2023-03-23T02:29:32;1.95;;;0.90;;
27632;SDS011;15046;50.930;13.334;2023-03-23T02:35:13;1.55;;;0.80;;
27632;SDS011;15046;50.930;13.334;2023-03-23T02:37:57;2.10;;;1.08;;
27632;SDS011;15046;50.930;13.334;2023-03-23T02:40:30;2.67;;;0.80;;
27632;SDS011;15046;50.930;13.334;2023-03-23T02:43:02;1.30;;;0.60;;
27632;SDS011;15046;50.930;13.334;2023-03-23T02:45:34;2.05;;;0.73;;
27632;SDS011;15046;50.930;13.334;2023-03-23T02:48:01;2.78;;;0.90;;
27632;SDS011;15046;50.930;13.334;2023-03-23T02:50:29;1.70;;;0.75;;
27632;SDS011;15046;50.930;13.334;2023-03-23T02:52:57;2.15;;;0.73;;
27632;SDS011;15046;50.930;13.334;2023-03-23T02:55:25;1.30;;;0.68;;
27632;SDS011;15046;50.930;13.334;2023-03-23T02:57:55;4.07;;;1.23;;
27632;SDS011;15046;50.930;13.334;2023-03-23T03:00:21;2.20;;;0.90;;
27632;SDS011;15046;50.930;13.334;2023-03-23T03:02:50;2.88;;;1.00;;
27632;SDS011;15046;50.930;13.334;2023-03-23T03:07:57;2.70;;;1.10;;
27632;SDS011;15046;50.930;13.334;2023-03-23T03:10:54;1.63;;;0.80;;
27632;SDS011;15046;50.930;13.334;2023-03-23T03:15:55;2.83;;;1.03;;
27632;SDS011;15046;50.930;13.334;2023-03-23T03:21:27;2.03;;;0.90;;
27632;SDS011;15046;50.930;13.334;2023-03-23T03:23:56;2.97;;;1.10;;
27632;SDS011;15046;50.930;13.334;2023-03-23T03:26:26;2.40;;;0.90;;
27632;SDS011;15046;50.930;13.334;2023-03-23T03:28:53;3.33;;;1.20;;
27632;SDS011;15046;50.930;13.334;2023-03-23T03:31:30;1.25;;;0.63;;
27632;SDS011;15046;50.930;13.334;2023-03-23T03:33:58;1.88;;;0.95;;
27632;SDS011;15046;50.930;13.334;2023-03-23T03:36:30;1.98;;;1.13;;
27632;SDS011;15046;50.930;13.334;2023-03-23T03:39:06;3.45;;;1.02;;
27632;SDS011;15046;50.930;13.334;2023-03-23T03:41:35;2.33;;;0.98;;
27632;SDS011;15046;50.930;13.334;2023-03-23T03:44:02;3.03;;;0.80;;
27632;SDS011;15046;50.930;13.334;2023-03-23T03:46:28;3.38;;;0.90;;
27632;SDS011;15046;50.930;13.334;2023-03-23T03:48:56;2.13;;;1.05;;
27632;SDS011;15046;50.930;13.334;2023-03-23T03:51:23;4.25;;;1.10;;
27632;SDS011;15046;50.930;13.334;2023-03-23T03:53:50;3.85;;;1.30;;
27632;SDS011;15046;50.930;13.334;2023-03-23T03:56:16;1.73;;;1.00;;
27632;SDS011;15046;50.930;13.334;2023-03-23T03:58:42;2.45;;;0.80;;
27632;SDS011;15046;50.930;13.334;2023-03-23T04:01:08;1.25;;;0.70;;
27632;SDS011;15046;50.930;13.334;2023-03-23T04:03:35;1.65;;;0.85;;
27632;SDS011;15046;50.930;13.334;2023-03-23T04:06:02;1.20;;;0.90;;
27632;SDS011;15046;50.930;13.334;2023-03-23T04:08:28;1.77;;;0.77;;
27632;SDS011;15046;50.930;13.334;2023-03-23T04:10:54;1.67;;;0.75;;
27632;SDS011;15046;50.930;13.334;2023-03-23T04:13:20;2.40;;;0.82;;
27632;SDS011;15046;50.930;13.334;2023-03-23T04:15:46;3.58;;;1.00;;
27632;SDS011;15046;50.930;13.334;2023-03-23T04:18:13;1.40;;;0.82;;
27632;SDS011;15046;50.930;13.334;2023-03-23T04:20:41;1.58;;;1.00;;
27632;SDS011;15046;50.930;13.334;2023-03-23T04:23:08;2.80;;;0.93;;
27632;SDS011;15046;50.930;13.334;2023-03-23T04:25:33;1.88;;;0.93;;
27632;SDS011;15046;50.930;13.334;2023-03-23T04:28:00;1.98;;;0.90;;
27632;SDS011;15046;50.930;13.334;2023-03-23T04:30:26;2.40;;;0.90;;
27632;SDS011;15046;50.930;13.334;2023-03-23T04:32:54;3.60;;;1.13;;
27632;SDS011;15046;50.930;13.334;2023-03-23T04:35:21;4.05;;;1.30;;
27632;SDS011;15046;50.930;13.334;2023-03-23T04:37:49;1.73;;;0.90;;
27632;SDS011;15046;50.930;13.334;2023-03-23T04:40:15;1.83;;;0.95;;
27632;SDS011;15046;50.930;13.334;2023-03-23T04:42:42;4.45;;;0.90;;
27632;SDS011;15046;50.930;13.334;2023-03-23T04:45:13;6.35;;;1.30;;
27632;SDS011;15046;50.930;13.334;2023-03-23T04:47:41;4.25;;;1.27;;
27632;SDS011;15046;50.930;13.334;2023-03-23T04:50:08;1.77;;;0.90;;
27632;SDS011;15046;50.930;13.334;2023-03-23T04:52:37;3.67;;;1.27;;
27632;SDS011;15046;50.930;13.334;2023-03-23T04:55:05;3.40;;;1.40;;
27632;SDS011;15046;50.930;13.334;2023-03-23T04:57:33;4.13;;;1.25;;
27632;SDS011;15046;50.930;13.334;2023-03-23T05:00:00;2.92;;;1.40;;
27632;SDS011;15046;50.930;13.334;2023-03-23T05:02:33;3.15;;;1.25;;
27632;SDS011;15046;50.930;13.334;2023-03-23T05:05:01;2.92;;;1.13;;
27632;SDS011;15046;50.930;13.334;2023-03-23T05:07:27;2.08;;;1.05;;
27632;SDS011;15046;50.930;13.334;2023-03-23T05:09:53;2.92;;;1.42;;
27632;SDS011;15046;50.930;13.334;2023-03-23T05:12:18;2.22;;;1.10;;
27632;SDS011;15046;50.930;13.334;2023-03-23T05:14:44;2.08;;;1.00;;
27632;SDS011;15046;50.930;13.334;2023-03-23T05:17:10;3.35;;;1.08;;
27632;SDS011;15046;50.930;13.334;2023-03-23T05:19:37;2.63;;;1.00;;
27632;SDS011;15046;50.930;13.334;2023-03-23T05:22:03;3.30;;;1.13;;
27632;SDS011;15046;50.930;13.334;2023-03-23T05:24:30;5.90;;;1.05;;
27632;SDS011;15046;50.930;13.334;2023-03-23T05:26:58;4.13;;;1.10;;
27632;SDS011;15046;50.930;13.334;2023-03-23T05:29:25;3.85;;;1.00;;
27632;SDS011;15046;50.930;13.334;2023-03-23T05:31:52;6.28;;;1.00;;
27632;SDS011;15046;50.930;13.334;2023-03-23T05:34:20;2.22;;;1.00;;
27632;SDS011;15046;50.930;13.334;2023-03-23T05:36:46;2.22;;;1.52;;
27632;SDS011;15046;50.930;13.334;2023-03-23T05:39:12;2.00;;;0.90;;
27632;SDS011;15046;50.930;13.334;2023-03-23T05:41:39;2.33;;;1.00;;
27632;SDS011;15046;50.930;13.334;2023-03-23T05:44:05;2.38;;;0.88;;
27632;SDS011;15046;50.930;13.334;2023-03-23T05:46:31;2.63;;;1.20;;
27632;SDS011;15046;50.930;13.334;2023-03-23T05:48:57;1.85;;;0.88;;
27632;SDS011;15046;50.930;13.334;2023-03-23T05:51:23;1.55;;;0.80;;
27632;SDS011;15046;50.930;13.334;2023-03-23T05:53:49;2.35;;;1.00;;
27632;SDS011;15046;50.930;13.334;2023-03-23T05:56:15;4.45;;;1.40;;
27632;SDS011;15046;50.930;13.334;2023-03-23T05:58:41;2.30;;;1.33;;
27632;SDS011;15046;50.930;13.334;2023-03-23T06:01:07;2.75;;;1.48;;
27632;SDS011;15046;50.930;13.334;2023-03-23T06:03:34;2.55;;;1.27;;
27632;SDS011;15046;50.930;13.334;2023-03-23T06:06:02;3.80;;;1.30;;
27632;SDS011;15046;50.930;13.334;2023-03-23T06:08:29;2.10;;;1.00;;
27632;SDS011;15046;50.930;13.334;2023-03-23T06:10:55;3.08;;;1.08;;
27632;SDS011;15046;50.930;13.334;2023-03-23T06:13:21;4.18;;;1.27;;
27632;SDS011;15046;50.930;13.334;2023-03-23T06:15:48;2.53;;;1.00;;
27632;SDS011;15046;50.930;13.334;2023-03-23T06:18:14;1.27;;;0.80;;
27632;SDS011;15046;50.930;13.334;2023-03-23T06:20:40;2.42;;;1.13;;
27632;SDS011;15046;50.930;13.334;2023-03-23T06:23:08;3.30;;;1.20;;
27632;SDS011;15046;50.930;13.334;2023-03-23T06:25:34;1.73;;;0.90;;
27632;SDS011;15046;50.930;13.334;2023-03-23T06:28:00;4.75;;;1.50;;
27632;SDS011;15046;50.930;13.334;2023-03-23T06:30:26;2.25;;;0.98;;
27632;SDS011;15046;50.930;13.334;2023-03-23T06:32:52;2.35;;;0.93;;
27632;SDS011;15046;50.930;13.334;2023-03-23T06:35:18;2.00;;;0.85;;
27632;SDS011;15046;50.930;13.334;2023-03-23T06:37:45;2.20;;;0.95;;
27632;SDS011;15046;50.930;13.334;2023-03-23T06:40:11;4.32;;;1.02;;
27632;SDS011;15046;50.930;13.334;2023-03-23T06:42:37;2.25;;;0.98;;
27632;SDS011;15046;50.930;13.334;2023-03-23T06:45:04;2.85;;;1.23;;
27632;SDS011;15046;50.930;13.334;2023-03-23T06:47:30;2.53;;;0.95;;
27632;SDS011;15046;50.930;13.334;2023-03-23T06:49:57;3.88;;;1.20;;
27632;SDS011;15046;50.930;13.334;2023-03-23T06:52:23;3.20;;;1.02;;
27632;SDS011;15046;50.930;13.334;2023-03-23T06:54:50;1.48;;;0.85;;
27632;SDS011;15046;50.930;13.334;2023-03-23T06:57:17;2.45;;;1.00;;
27632;SDS011;15046;50.930;13.334;2023-03-23T06:59:44;2.08;;;0.98;;
27632;SDS011;15046;50.930;13.334;2023-03-23T07:02:11;2.63;;;0.98;;
27632;SDS011;15046;50.930;13.334;2023-03-23T07:04:39;2.92;;;1.30;;
27632;SDS011;15046;50.930;13.334;2023-03-23T07:07:07;2.75;;;1.08;;
27632;SDS011;15046;50.930;13.334;2023-03-23T07:09:34;2.70;;;1.00;;
27632;SDS011;15046;50.930;13.334;2023-03-23T07:12:00;1.17;;;0.75;;
27632;SDS011;15046;50.930;13.334;2023-03-23T07:14:26;2.58;;;1.08;;
27632;SDS011;15046;50.930;13.334;2023-03-23T07:16:51;1.88;;;0.85;;
27632;SDS011;15046;50.930;13.334;2023-03-23T07:19:18;2.88;;;1.42;;
27632;SDS011;15046;50.930;13.334;2023-03-23T07:21:44;1.58;;;0.82;;
27632;SDS011;15046;50.930;13.334;2023-03-23T07:24:13;3.00;;;1.02;;
27632;SDS011;15046;50.930;13.334;2023-03-23T07:26:42;3.05;;;1.40;;
27632;SDS011;15046;50.930;13.334;2023-03-23T07:29:08;5.55;;;1.30;;
27632;SDS011;15046;50.930;13.334;2023-03-23T07:31:34;2.58;;;1.10;;
27632;SDS011;15046;50.930;13.334;2023-03-23T07:34:01;2.55;;;1.20;;
27632;SDS011;15046;50.930;13.334;2023-03-23T07:36:28;2.28;;;1.10;;
27632;SDS011;15046;50.930;13.334;2023-03-23T07:38:54;3.08;;;1.20;;
27632;SDS011;15046;50.930;13.334;2023-03-23T07:41:21;2.47;;;1.20;;
27632;SDS011;15046;50.930;13.334;2023-03-23T07:43:47;2.13;;;1.10;;
27632;SDS011;15046;50.930;13.334;2023-03-23T07:46:13;2.97;;;1.40;;
27632;SDS011;15046;50.930;13.334;2023-03-23T07:48:39;3.65;;;1.27;;
27632;SDS011;15046;50.930;13.334;2023-03-23T07:51:05;1.95;;;1.10;;
27632;SDS011;15046;50.930;13.334;2023-03-23T07:53:32;2.50;;;1.13;;
27632;SDS011;15046;50.930;13.334;2023-03-23T07:55:58;2.65;;;1.27;;
27632;SDS011;15046;50.930;13.334;2023-03-23T07:58:24;4.55;;;1.20;;
27632;SDS011;15046;50.930;13.334;2023-03-23T08:00:51;2.17;;;1.13;;
27632;SDS011;15046;50.930;13.334;2023-03-23T08:03:17;4.95;;;1.30;;
27632;SDS011;15046;50.930;13.334;2023-03-23T08:05:44;3.72;;;1.20;;
27632;SDS011;15046;50.930;13.334;2023-03-23T08:08:10;3.15;;;1.42;;
27632;SDS011;15046;50.930;13.334;2023-03-23T08:10:36;2.70;;;1.23;;
27632;SDS011;15046;50.930;13.334;2023-03-23T08:13:02;4.10;;;1.27;;
27632;SDS011;15046;50.930;13.334;2023-03-23T08:15:29;2.60;;;1.15;;
27632;SDS011;15046;50.930;13.334;2023-03-23T08:17:55;5.63;;;1.35;;
27632;SDS011;15046;50.930;13.334;2023-03-23T08:20:21;3.00;;;1.17;;
27632;SDS011;15046;50.930;13.334;2023-03-23T08:22:53;2.20;;;1.03;;
27632;SDS011;15046;50.930;13.334;2023-03-23T08:25:21;3.80;;;1.55;;
27632;SDS011;15046;50.930;13.334;2023-03-23T08:27:49;3.45;;;1.20;;
27632;SDS011;15046;50.930;13.334;2023-03-23T08:30:16;3.95;;;1.35;;
27632;SDS011;15046;50.930;13.334;2023-03-23T08:32:44;3.05;;;1.30;;
27632;SDS011;15046;50.930;13.334;2023-03-23T08:35:10;4.00;;;1.35;;
27632;SDS011;15046;50.930;13.334;2023-03-23T08:37:37;5.68;;;1.85;;
27632;SDS011;15046;50.930;13.334;2023-03-23T08:40:05;3.50;;;1.52;;
27632;SDS011;15046;50.930;13.334;2023-03-23T08:42:35;2.00;;;1.20;;
27632;SDS011;15046;50.930;13.334;2023-03-23T08:45:06;2.05;;;1.05;;
27632;SDS011;15046;50.930;13.334;2023-03-23T08:47:33;2.38;;;1.20;;
27632;SDS011;15046;50.930;13.334;2023-03-23T08:50:02;3.70;;;1.52;;
27632;SDS011;15046;50.930;13.334;2023-03-23T08:52:29;2.83;;;1.02;;
27632;SDS011;15046;50.930;13.334;2023-03-23T08:54:55;6.55;;;1.42;;
27632;SDS011;15046;50.930;13.334;2023-03-23T08:57:21;3.97;;;1.35;;
27632;SDS011;15046;50.930;13.334;2023-03-23T08:59:48;3.03;;;1.40;;
27632;SDS011;15046;50.930;13.334;2023-03-23T09:02:14;3.88;;;1.52;;
27632;SDS011;15046;50.930;13.334;2023-03-23T09:04:41;3.42;;;1.40;;
27632;SDS011;15046;50.930;13.334;2023-03-23T09:07:08;3.75;;;1.75;;
27632;SDS011;15046;50.930;13.334;2023-03-23T09:09:36;5.15;;;1.38;;
27632;SDS011;15046;50.930;13.334;2023-03-23T09:12:02;4.22;;;1.42;;
27632;SDS011;15046;50.930;13.334;2023-03-23T09:14:28;3.53;;;1.60;;
27632;SDS011;15046;50.930;13.334;2023-03-23T09:16:54;2.28;;;1.30;;
27632;SDS011;15046;50.930;13.334;2023-03-23T09:19:19;3.17;;;1.58;;
27632;SDS011;15046;50.930;13.334;2023-03-23T09:21:45;3.28;;;1.88;;
27632;SDS011;15046;50.930;13.334;2023-03-23T09:24:11;4.53;;;1.60;;
27632;SDS011;15046;50.930;13.334;2023-03-23T09:26:37;4.70;;;1.30;;
27632;SDS011;15046;50.930;13.334;2023-03-23T09:29:03;4.38;;;1.83;;
27632;SDS011;15046;50.930;13.334;2023-03-23T09:31:28;4.00;;;1.63;;
27632;SDS011;15046;50.930;13.334;2023-03-23T09:33:56;4.28;;;1.85;;
27632;SDS011;15046;50.930;13.334;2023-03-23T09:36:24;3.70;;;1.27;;
27632;SDS011;15046;50.930;13.334;2023-03-23T09:38:56;4.68;;;1.60;;
27632;SDS011;15046;50.930;13.334;2023-03-23T09:44:04;3.40;;;1.55;;
27632;SDS011;15046;50.930;13.334;2023-03-23T09:46:58;3.33;;;1.60;;
27632;SDS011;15046;50.930;13.334;2023-03-23T09:49:41;4.55;;;1.48;;
27632;SDS011;15046;50.930;13.334;2023-03-23T09:52:20;3.40;;;1.80;;
27632;SDS011;15046;50.930;13.334;2023-03-23T09:54:49;3.55;;;1.30;;
27632;SDS011;15046;50.930;13.334;2023-03-23T09:57:32;2.63;;;1.30;;
27632;SDS011;15046;50.930;13.334;2023-03-23T10:03:13;1.88;;;1.08;;
27632;SDS011;15046;50.930;13.334;2023-03-23T10:05:45;3.42;;;1.38;;
27632;SDS011;15046;50.930;13.334;2023-03-23T10:08:16;3.97;;;1.38;;
27632;SDS011;15046;50.930;13.334;2023-03-23T10:15:59;2.80;;;1.40;;
27632;SDS011;15046;50.930;13.334;2023-03-23T10:21:02;5.03;;;1.30;;
27632;SDS011;15046;50.930;13.334;2023-03-23T10:29:31;3.67;;;1.90;;
27632;SDS011;15046;50.930;13.334;2023-03-23T10:32:17;2.50;;;1.30;;
27632;SDS011;15046;50.930;13.334;2023-03-23T10:34:51;3.25;;;1.45;;
27632;SDS011;15046;50.930;13.334;2023-03-23T10:37:26;2.67;;;1.40;;
27632;SDS011;15046;50.930;13.334;2023-03-23T10:39:57;2.38;;;1.17;;
27632;SDS011;15046;50.930;13.334;2023-03-23T10:42:32;2.55;;;1.20;;
27632;SDS011;15046;50.930;13.334;2023-03-23T10:45:10;3.30;;;1.50;;
27632;SDS011;15046;50.930;13.334;2023-03-23T10:47:37;3.15;;;1.67;;
27632;SDS011;15046;50.930;13.334;2023-03-23T10:50:05;3.58;;;1.30;;
27632;SDS011;15046;50.930;13.334;2023-03-23T10:52:41;3.22;;;1.50;;
27632;SDS011;15046;50.930;13.334;2023-03-23T10:55:13;2.67;;;1.50;;
27632;SDS011;15046;50.930;13.334;2023-03-23T10:57:42;2.42;;;1.27;;
27632;SDS011;15046;50.930;13.334;2023-03-23T11:00:24;2.63;;;1.00;;
27632;SDS011;15046;50.930;13.334;2023-03-23T11:02:58;3.40;;;1.30;;
27632;SDS011;15046;50.930;13.334;2023-03-23T11:05:42;3.05;;;1.40;;
27632;SDS011;15046;50.930;13.334;2023-03-23T11:08:22;2.67;;;1.40;;
27632;SDS011;15046;50.930;13.334;2023-03-23T11:10:54;3.45;;;1.02;;
27632;SDS011;15046;50.930;13.334;2023-03-23T11:13:28;2.92;;;1.55;;
27632;SDS011;15046;50.930;13.334;2023-03-23T11:15:55;2.72;;;1.67;;
27632;SDS011;15046;50.930;13.334;2023-03-23T11:18:23;2.35;;;1.30;;
27632;SDS011;15046;50.930;13.334;2023-03-23T11:21:00;3.20;;;1.92;;
27632;SDS011;15046;50.930;13.334;2023-03-23T11:23:35;3.88;;;1.40;;
27632;SDS011;15046;50.930;13.334;2023-03-23T11:26:24;2.92;;;1.10;;
27632;SDS011;15046;50.930;13.334;2023-03-23T11:29:34;1.67;;;1.05;;
27632;SDS011;15046;50.930;13.334;2023-03-23T11:31:47;2.72;;;1.20;;
27632;SDS011;15046;50.930;13.334;2023-03-23T11:34:24;2.40;;;1.00;;
27632;SDS011;15046;50.930;13.334;2023-03-23T11:37:00;2.97;;;1.10;;
27632;SDS011;15046;50.930;13.334;2023-03-23T11:39:31;2.85;;;1.35;;
27632;SDS011;15046;50.930;13.334;2023-03-23T11:42:11;3.00;;;1.38;;
27632;SDS011;15046;50.930;13.334;2023-03-23T11:44:53;2.80;;;1.20;;
27632;SDS011;15046;50.930;13.334;2023-03-23T11:47:39;1.88;;;1.23;;
27632;SDS011;15046;50.930;13.334;2023-03-23T11:50:34;5.13;;;1.52;;
27632;SDS011;15046;50.930;13.334;2023-03-23T11:56:15;2.35;;;1.10;;
27632;SDS011;15046;50.930;13.334;2023-03-23T11:58:56;4.25;;;1.30;;
27632;SDS011;15046;50.930;13.334;2023-03-23T12:04:25;4.47;;;1.50;;
27632;SDS011;15046;50.930;13.334;2023-03-23T12:10:02;3.20;;;1.50;;
27632;SDS011;15046;50.930;13.334;2023-03-23T12:12:44;2.58;;;1.35;;
27632;SDS011;15046;50.930;13.334;2023-03-23T12:18:01;3.40;;;1.20;;
27632;SDS011;15046;50.930;13.334;2023-03-23T12:25:57;3.47;;;1.40;;
27632;SDS011;15046;50.930;13.334;2023-03-23T12:34:33;3.92;;;1.80;;
27632;SDS011;15046;50.930;13.334;2023-03-23T12:40:32;2.92;;;1.35;;
27632;SDS011;15046;50.930;13.334;2023-03-23T12:42:51;3.30;;;1.40;;
27632;SDS011;15046;50.930;13.334;2023-03-23T12:48:16;2.15;;;1.10;;
27632;SDS011;15046;50.930;13.334;2023-03-23T12:58:59;3.55;;;1.40;;
27632;SDS011;15046;50.930;13.334;2023-03-23T13:01:37;1.98;;;1.30;;
27632;SDS011;15046;50.930;13.334;2023-03-23T13:04:11;2.40;;;1.15;;
27632;SDS011;15046;50.930;13.334;2023-03-23T13:06:45;2.58;;;1.38;;
27632;SDS011;15046;50.930;13.334;2023-03-23T13:11:39;3.22;;;1.50;;
27632;SDS011;15046;50.930;13.334;2023-03-23T13:28:14;2.28;;;1.27;;
27632;SDS011;15046;50.930;13.334;2023-03-23T13:30:57;2.95;;;1.23;;
27632;SDS011;15046;50.930;13.334;2023-03-23T13:33:29;2.33;;;1.33;;
27632;SDS011;15046;50.930;13.334;2023-03-23T13:36:12;3.63;;;1.40;;
27632;SDS011;15046;50.930;13.334;2023-03-23T13:38:44;2.67;;;1.33;;
27632;SDS011;15046;50.930;13.334;2023-03-23T13:41:13;2.80;;;1.38;;
27632;SDS011;15046;50.930;13.334;2023-03-23T13:43:42;2.45;;;1.30;;
27632;SDS011;15046;50.930;13.334;2023-03-23T13:46:11;3.40;;;1.30;;
27632;SDS011;15046;50.930;13.334;2023-03-23T13:49:03;2.17;;;1.20;;
27632;SDS011;15046;50.930;13.334;2023-03-23T13:54:19;6.00;;;1.45;;
27632;SDS011;15046;50.930;13.334;2023-03-23T13:56:53;3.25;;;1.17;;
27632;SDS011;15046;50.930;13.334;2023-03-23T14:01:52;4.07;;;1.60;;
27632;SDS011;15046;50.930;13.334;2023-03-23T14:04:19;4.25;;;1.52;;
27632;SDS011;15046;50.930;13.334;2023-03-23T14:06:47;7.90;;;1.25;;
27632;SDS011;15046;50.930;13.334;2023-03-23T14:11:54;3.05;;;1.15;;
27632;SDS011;15046;50.930;13.334;2023-03-23T14:14:34;3.28;;;1.35;;
27632;SDS011;15046;50.930;13.334;2023-03-23T14:17:07;3.38;;;1.25;;
27632;SDS011;15046;50.930;13.334;2023-03-23T14:19:53;3.17;;;1.23;;
27632;SDS011;15046;50.930;13.334;2023-03-23T14:22:25;2.33;;;1.30;;
27632;SDS011;15046;50.930;13.334;2023-03-23T14:24:53;3.38;;;1.30;;
27632;SDS011;15046;50.930;13.334;2023-03-23T14:27:26;3.58;;;1.45;;
27632;SDS011;15046;50.930;13.334;2023-03-23T14:29:59;2.80;;;1.40;;
27632;SDS011;15046;50.930;13.334;2023-03-23T14:32:27;3.03;;;1.52;;
27632;SDS011;15046;50.930;13.334;2023-03-23T14:34:56;3.90;;;1.90;;
27632;SDS011;15046;50.930;13.334;2023-03-23T14:37:22;2.90;;;1.40;;
27632;SDS011;15046;50.930;13.334;2023-03-23T14:39:49;2.83;;;1.27;;
27632;SDS011;15046;50.930;13.334;2023-03-23T14:42:31;3.92;;;1.80;;
27632;SDS011;15046;50.930;13.334;2023-03-23T14:44:59;7.68;;;2.08;;
27632;SDS011;15046;50.930;13.334;2023-03-23T14:47:29;4.68;;;1.83;;
27632;SDS011;15046;50.930;13.334;2023-03-23T14:49:59;2.13;;;1.27;;
27632;SDS011;15046;50.930;13.334;2023-03-23T14:52:32;2.33;;;1.10;;
27632;SDS011;15046;50.930;13.334;2023-03-23T14:55:13;3.50;;;1.40;;
27632;SDS011;15046;50.930;13.334;2023-03-23T14:57:42;3.97;;;1.20;;
27632;SDS011;15046;50.930;13.334;2023-03-23T15:00:14;2.92;;;1.02;;
27632;SDS011;15046;50.930;13.334;2023-03-23T15:02:44;2.45;;;1.10;;
27632;SDS011;15046;50.930;13.334;2023-03-23T15:05:14;2.92;;;1.00;;
27632;SDS011;15046;50.930;13.334;2023-03-23T15:07:52;2.90;;;1.15;;
27632;SDS011;15046;50.930;13.334;2023-03-23T15:10:20;2.15;;;1.15;;
27632;SDS011;15046;50.930;13.334;2023-03-23T15:12:48;2.60;;;1.45;;
27632;SDS011;15046;50.930;13.334;2023-03-23T15:15:26;2.55;;;1.13;;
27632;SDS011;15046;50.930;13.334;2023-03-23T15:18:00;2.55;;;1.05;;
27632;SDS011;15046;50.930;13.334;2023-03-23T15:20:46;1.88;;;0.82;;
27632;SDS011;15046;50.930;13.334;2023-03-23T15:23:15;2.15;;;1.13;;
27632;SDS011;15046;50.930;13.334;2023-03-23T15:25:50;1.85;;;0.93;;
27632;SDS011;15046;50.930;13.334;2023-03-23T15:28:18;1.55;;;0.90;;
27632;SDS011;15046;50.930;13.334;2023-03-23T15:30:50;1.70;;;0.90;;
27632;SDS011;15046;50.930;13.334;2023-03-23T15:33:18;2.78;;;0.90;;
27632;SDS011;15046;50.930;13.334;2023-03-23T15:35:51;2.92;;;1.02;;
27632;SDS011;15046;50.930;13.334;2023-03-23T15:43:19;1.35;;;0.77;;
27632;SDS011;15046;50.930;13.334;2023-03-23T15:45:57;2.42;;;0.95;;
27632;SDS011;15046;50.930;13.334;2023-03-23T15:48:28;1.70;;;0.70;;
27632;SDS011;15046;50.930;13.334;2023-03-23T15:50:59;1.25;;;0.70;;
27632;SDS011;15046;50.930;13.334;2023-03-23T15:53:33;1.02;;;0.60;;
27632;SDS011;15046;50.930;13.334;2023-03-23T15:56:06;2.40;;;0.73;;
27632;SDS011;15046;50.930;13.334;2023-03-23T15:58:33;2.05;;;0.63;;
27632;SDS011;15046;50.930;13.334;2023-03-23T16:01:02;1.98;;;0.80;;
27632;SDS011;15046;50.930;13.334;2023-03-23T16:03:42;1.70;;;0.90;;
27632;SDS011;15046;50.930;13.334;2023-03-23T16:06:14;2.58;;;0.73;;
27632;SDS011;15046;50.930;13.334;2023-03-23T16:08:42;4.35;;;0.77;;
27632;SDS011;15046;50.930;13.334;2023-03-23T16:11:14;2.30;;;1.20;;
27632;SDS011;15046;50.930;13.334;2023-03-23T16:13:41;3.05;;;1.25;;
27632;SDS011;15046;50.930;13.334;2023-03-23T16:16:18;1.67;;;0.80;;
27632;SDS011;15046;50.930;13.334;2023-03-23T16:18:51;1.42;;;0.80;;
27632;SDS011;15046;50.930;13.334;2023-03-23T16:21:17;2.83;;;1.30;;
27632;SDS011;15046;50.930;13.334;2023-03-23T16:23:42;2.25;;;1.13;;
27632;SDS011;15046;50.930;13.334;2023-03-23T16:26:10;1.98;;;0.98;;
27632;SDS011;15046;50.930;13.334;2023-03-23T16:28:37;4.90;;;1.30;;
27632;SDS011;15046;50.930;13.334;2023-03-23T16:31:03;2.10;;;0.98;;
27632;SDS011;15046;50.930;13.334;2023-03-23T16:33:28;2.00;;;0.90;;
27632;SDS011;15046;50.930;13.334;2023-03-23T16:35:54;2.25;;;1.17;;
27632;SDS011;15046;50.930;13.334;2023-03-23T16:38:22;1.80;;;0.80;;
27632;SDS011;15046;50.930;13.334;2023-03-23T16:40:49;1.45;;;0.70;;